Time;durP1;ratioP1;P1;durP2;ratioP2;P2;SDS_P1;SDS_P2;PMS_P1;PMS_P2;Temp;Humidity;BMP_temperature;BMP_pressure;BME280_temperature;BME280_humidity;BME280_pressure;Samples;Min_cycle;Max_cycle;Signal;HPM_P1;HPM_P2
2023/06/02 00:01:20;;;;;;;7.55;4.18;;;18.50;99.90;;;;;;5056630;28;20028;-77
2023/06/02 00:03:45;;;;;;;6.45;4.30;;;18.30;99.90;;;;;;5055204;28;20090;-77
2023/06/02 00:06:18;;;;;;;7.97;3.95;;;18.30;99.90;;;;;;5053818;28;20474;-77
2023/06/02 00:08:43;;;;;;;6.88;4.82;;;18.30;99.90;;;;;;5053502;28;20040;-76
2023/06/02 00:11:11;;;;;;;7.40;4.57;;;18.50;99.90;;;;;;5058661;28;20036;-77
2023/06/02 00:13:37;;;;;;;7.80;4.55;;;18.70;99.90;;;;;;5053942;28;20025;-77
2023/06/02 00:16:03;;;;;;;6.95;4.47;;;18.70;99.90;;;;;;5055372;28;20028;-77
2023/06/02 00:18:32;;;;;;;7.30;4.45;;;18.50;99.90;;;;;;5057618;28;20056;-77
2023/06/02 00:21:02;;;;;;;6.65;4.13;;;18.50;99.90;;;;;;5060011;28;20473;-76
2023/06/02 00:23:29;;;;;;;9.80;5.00;;;18.80;99.90;;;;;;5062789;28;20021;-77
2023/06/02 00:25:56;;;;;;;7.97;4.40;;;18.70;99.90;;;;;;5054422;28;20037;-77
2023/06/02 00:28:21;;;;;;;6.38;3.97;;;18.70;99.90;;;;;;5053076;28;20033;-77
2023/06/02 00:30:47;;;;;;;9.85;4.65;;;18.80;99.90;;;;;;5054691;28;20137;-77
2023/06/02 00:33:13;;;;;;;9.30;4.50;;;18.90;99.90;;;;;;5057383;28;20029;-77
2023/06/02 00:35:38;;;;;;;8.07;4.47;;;18.90;99.90;;;;;;5053119;28;20042;-76
2023/06/02 00:38:04;;;;;;;7.97;3.97;;;18.70;99.90;;;;;;5056242;28;20029;-77
2023/06/02 00:40:32;;;;;;;6.63;3.97;;;18.60;99.90;;;;;;5054125;28;20030;-77
2023/06/02 00:42:59;;;;;;;8.00;4.65;;;18.70;99.90;;;;;;5056002;28;20028;-77
2023/06/02 00:45:25;;;;;;;8.27;4.68;;;18.70;99.90;;;;;;5055414;28;20021;-77
2023/06/02 00:47:50;;;;;;;8.27;4.65;;;18.80;99.90;;;;;;5059686;28;20388;-76
2023/06/02 00:50:17;;;;;;;6.00;3.92;;;18.70;99.90;;;;;;5055911;28;20085;-76
2023/06/02 00:52:45;;;;;;;7.82;4.75;;;18.70;99.90;;;;;;5054312;28;20083;-76
2023/06/02 00:55:11;;;;;;;8.00;4.72;;;18.50;99.90;;;;;;5060669;28;20028;-77
2023/06/02 00:57:40;;;;;;;7.57;4.18;;;18.50;99.90;;;;;;5053406;28;20037;-77
2023/06/02 01:00:10;;;;;;;7.22;4.25;;;18.50;99.90;;;;;;5052086;28;20048;-77
2023/06/02 01:02:36;;;;;;;5.25;3.70;;;18.50;99.90;;;;;;5062856;28;20025;-77
2023/06/02 01:05:10;;;;;;;7.55;4.20;;;18.70;99.90;;;;;;5056224;28;20043;-77
2023/06/02 01:07:39;;;;;;;8.40;4.45;;;18.60;99.90;;;;;;5053522;28;20037;-76
2023/06/02 01:10:07;;;;;;;7.05;3.90;;;18.50;99.90;;;;;;5057341;28;20024;-77
2023/06/02 01:12:33;;;;;;;6.68;4.00;;;18.30;99.90;;;;;;5054764;28;20864;-77
2023/06/02 01:14:59;;;;;;;6.18;4.40;;;18.10;99.90;;;;;;5052403;28;20059;-77
2023/06/02 01:17:30;;;;;;;6.65;4.78;;;18.00;99.90;;;;;;5053159;28;20087;-76
2023/06/02 01:20:04;;;;;;;7.55;4.28;;;17.90;99.90;;;;;;5059179;28;20087;-77
2023/06/02 01:22:38;;;;;;;7.68;4.22;;;17.80;99.90;;;;;;5056910;28;20021;-77
2023/06/02 01:25:19;;;;;;;8.77;5.13;;;17.80;99.90;;;;;;5057206;28;20024;-77
2023/06/02 01:27:45;;;;;;;8.15;3.88;;;17.90;99.90;;;;;;5056311;28;20082;-76
2023/06/02 01:30:11;;;;;;;7.47;4.00;;;17.80;99.90;;;;;;5052808;28;20032;-76
2023/06/02 01:32:54;;;;;;;6.78;4.18;;;17.80;99.90;;;;;;5052824;28;20029;-76
2023/06/02 01:35:21;;;;;;;8.93;4.78;;;17.80;99.90;;;;;;5059171;28;20414;-77
2023/06/02 01:37:54;;;;;;;6.88;4.20;;;17.60;99.90;;;;;;5055743;28;20071;-76
2023/06/02 01:40:21;;;;;;;9.90;4.88;;;17.50;99.90;;;;;;5053047;28;20086;-76
2023/06/02 01:42:47;;;;;;;10.15;4.40;;;17.50;99.90;;;;;;5053172;28;20029;-76
2023/06/02 01:45:14;;;;;;;7.95;4.53;;;17.50;99.90;;;;;;5057862;28;20368;-76
2023/06/02 01:47:40;;;;;;;6.32;3.97;;;17.40;99.90;;;;;;5057130;28;20033;-76
2023/06/02 01:50:06;;;;;;;8.07;4.18;;;17.20;99.90;;;;;;5055567;28;20118;-76
2023/06/02 01:52:32;;;;;;;7.78;4.45;;;17.10;99.90;;;;;;5054852;28;20032;-76
2023/06/02 01:54:57;;;;;;;6.63;4.35;;;17.20;99.90;;;;;;5053958;28;20028;-76
2023/06/02 01:57:23;;;;;;;5.80;3.05;;;17.20;99.90;;;;;;5051305;28;20069;-76
2023/06/02 01:59:49;;;;;;;5.65;3.33;;;17.50;99.90;;;;;;5051338;28;20029;-76
2023/06/02 02:02:15;;;;;;;5.55;3.45;;;17.60;99.90;;;;;;5059504;28;20086;-77
2023/06/02 02:04:41;;;;;;;7.20;3.72;;;17.80;99.90;;;;;;5051243;28;20108;-77
2023/06/02 02:07:08;;;;;;;6.20;3.47;;;17.90;99.90;;;;;;5049169;28;20036;-77
2023/06/02 02:09:34;;;;;;;7.20;2.80;;;18.00;99.90;;;;;;5052167;28;20449;-76
2023/06/02 02:12:01;;;;;;;5.07;2.28;;;18.00;99.90;;;;;;5059503;28;20391;-77
2023/06/02 02:14:27;;;;;;;4.85;2.47;;;18.00;99.90;;;;;;5057234;28;20491;-77
2023/06/02 02:16:54;;;;;;;5.43;2.83;;;17.90;99.90;;;;;;5057041;28;20037;-77
2023/06/02 02:19:22;;;;;;;5.05;2.70;;;18.00;99.90;;;;;;5055645;28;20399;-76
2023/06/02 02:21:48;;;;;;;4.55;2.42;;;18.00;99.90;;;;;;5052145;28;20024;-77
2023/06/02 02:24:14;;;;;;;5.05;2.90;;;18.00;99.90;;;;;;5051851;28;20033;-76
2023/06/02 02:26:40;;;;;;;4.97;2.85;;;17.90;99.90;;;;;;5050020;28;20029;-77
2023/06/02 02:29:06;;;;;;;4.95;2.67;;;17.90;99.90;;;;;;5052702;28;20045;-76
2023/06/02 02:31:32;;;;;;;6.60;3.00;;;17.90;99.90;;;;;;5050967;28;20037;-76
2023/06/02 02:33:57;;;;;;;5.65;2.65;;;17.90;99.90;;;;;;5057765;28;20052;-76
2023/06/02 02:36:23;;;;;;;4.80;2.90;;;17.80;99.90;;;;;;5058826;28;20064;-76
2023/06/02 02:38:49;;;;;;;4.97;2.55;;;17.70;99.90;;;;;;5050816;28;20028;-76
2023/06/02 02:41:14;;;;;;;3.60;1.92;;;17.70;99.90;;;;;;5056398;28;20532;-76
2023/06/02 02:43:40;;;;;;;5.10;2.58;;;17.70;99.90;;;;;;5048738;28;20033;-76
2023/06/02 02:46:06;;;;;;;5.15;2.70;;;17.60;99.90;;;;;;5052153;28;20029;-76
2023/06/02 02:48:32;;;;;;;5.55;2.58;;;17.60;99.90;;;;;;5056314;28;20041;-76
2023/06/02 02:50:58;;;;;;;5.18;2.95;;;17.50;99.90;;;;;;5053790;28;20450;-77
2023/06/02 02:53:24;;;;;;;4.80;2.70;;;17.50;99.90;;;;;;5051323;28;20025;-76
2023/06/02 02:55:51;;;;;;;5.68;2.72;;;17.40;99.90;;;;;;5055648;28;20052;-77
2023/06/02 02:58:18;;;;;;;5.63;3.10;;;17.40;99.90;;;;;;5058234;28;20063;-76
2023/06/02 03:00:45;;;;;;;7.57;2.72;;;17.40;99.90;;;;;;5052683;28;20076;-76
2023/06/02 03:03:11;;;;;;;5.43;3.10;;;17.10;99.90;;;;;;5058717;28;20020;-76
2023/06/02 03:05:37;;;;;;;5.88;3.00;;;17.00;99.90;;;;;;5044933;28;20086;-76
2023/06/02 03:08:04;;;;;;;5.75;2.90;;;17.00;99.90;;;;;;5048499;28;20044;-76
2023/06/02 03:10:30;;;;;;;5.40;2.28;;;16.80;99.90;;;;;;5049230;28;20513;-76
2023/06/02 03:12:56;;;;;;;5.93;3.15;;;16.70;99.90;;;;;;5050068;28;20059;-76
2023/06/02 03:15:21;;;;;;;4.53;2.38;;;16.80;99.90;;;;;;5046505;28;20112;-76
2023/06/02 03:17:50;;;;;;;4.47;2.45;;;16.80;99.90;;;;;;5044925;28;20075;-76
2023/06/02 03:20:17;;;;;;;4.65;2.58;;;17.00;99.90;;;;;;5042665;28;20032;-76
2023/06/02 03:22:43;;;;;;;4.63;2.67;;;16.90;99.90;;;;;;5045008;28;20107;-76
2023/06/02 03:25:08;;;;;;;5.45;3.05;;;17.00;99.90;;;;;;5050428;28;20029;-76
2023/06/02 03:27:35;;;;;;;4.78;2.13;;;16.90;99.90;;;;;;5051196;28;20037;-76
2023/06/02 03:30:01;;;;;;;4.75;2.88;;;16.90;99.90;;;;;;5046209;28;20128;-76
2023/06/02 03:32:26;;;;;;;4.82;2.90;;;16.80;99.90;;;;;;5057865;28;20024;-75
2023/06/02 03:34:52;;;;;;;5.38;2.75;;;16.80;99.90;;;;;;5051059;28;20040;-76
2023/06/02 03:37:18;;;;;;;6.63;2.60;;;16.70;99.90;;;;;;5050001;28;20411;-76
2023/06/02 03:39:43;;;;;;;5.25;2.90;;;16.70;99.90;;;;;;5041615;28;20021;-76
2023/06/02 03:42:09;;;;;;;5.43;2.45;;;16.70;99.90;;;;;;5048218;28;20059;-77
2023/06/02 03:44:35;;;;;;;5.70;2.83;;;16.90;99.90;;;;;;5043084;28;20390;-76
2023/06/02 03:47:00;;;;;;;5.90;3.13;;;17.10;99.90;;;;;;5046895;28;20024;-76
2023/06/02 03:49:29;;;;;;;4.93;2.83;;;17.20;99.90;;;;;;5040786;28;20045;-77
2023/06/02 03:51:55;;;;;;;11.45;3.67;;;17.30;99.90;;;;;;5041653;28;20048;-76
2023/06/02 03:54:21;;;;;;;5.63;3.00;;;17.40;99.90;;;;;;5048138;28;20053;-76
2023/06/02 03:56:46;;;;;;;4.32;2.70;;;17.30;99.90;;;;;;5046898;28;20056;-76
2023/06/02 03:59:12;;;;;;;4.40;2.55;;;17.30;99.90;;;;;;5045327;28;20516;-76
2023/06/02 04:01:41;;;;;;;6.20;3.05;;;17.30;99.90;;;;;;5046809;28;20028;-76
2023/06/02 04:04:11;;;;;;;6.63;3.40;;;17.40;99.90;;;;;;5046988;28;20032;-76
2023/06/02 04:06:43;;;;;;;5.25;2.88;;;17.30;99.90;;;;;;5044484;28;20035;-76
2023/06/02 04:09:12;;;;;;;5.53;3.22;;;17.30;99.90;;;;;;5051109;28;20196;-76
2023/06/02 04:11:38;;;;;;;6.43;2.90;;;17.30;99.90;;;;;;5048314;28;20063;-76
2023/06/02 04:14:04;;;;;;;4.80;2.85;;;17.30;99.90;;;;;;5042404;28;20048;-76
2023/06/02 04:16:30;;;;;;;8.27;3.80;;;17.30;99.90;;;;;;5048887;28;20036;-76
2023/06/02 04:18:55;;;;;;;7.82;2.58;;;17.40;99.90;;;;;;5047045;28;20082;-76
2023/06/02 04:21:21;;;;;;;16.17;3.53;;;17.40;99.90;;;;;;5049019;28;20040;-76
2023/06/02 04:23:47;;;;;;;13.55;4.43;;;17.40;99.90;;;;;;5046769;28;20039;-77
2023/06/02 04:26:13;;;;;;;14.30;3.65;;;17.40;99.90;;;;;;5051243;28;20024;-76
2023/06/02 04:28:38;;;;;;;7.38;3.20;;;17.40;99.90;;;;;;5053632;28;20032;-76
2023/06/02 04:31:07;;;;;;;11.10;3.38;;;17.40;99.90;;;;;;5053334;28;20036;-76
2023/06/02 04:33:33;;;;;;;6.32;2.78;;;17.40;99.90;;;;;;5045332;28;20027;-76
2023/06/02 04:35:58;;;;;;;7.28;3.30;;;17.40;99.90;;;;;;5045112;28;20028;-76
2023/06/02 04:38:24;;;;;;;6.45;3.15;;;17.40;99.90;;;;;;5054597;28;20033;-76
2023/06/02 04:40:50;;;;;;;9.68;3.40;;;17.50;99.90;;;;;;5046411;28;20039;-76
2023/06/02 04:43:16;;;;;;;5.35;2.67;;;17.50;99.90;;;;;;5044979;28;20152;-77
2023/06/02 04:45:45;;;;;;;6.65;3.03;;;17.50;99.90;;;;;;5053019;28;20441;-77
2023/06/02 04:48:12;;;;;;;6.22;3.30;;;17.40;99.90;;;;;;5049734;28;20058;-77
2023/06/02 04:50:39;;;;;;;7.78;3.78;;;17.50;99.90;;;;;;5049054;28;20091;-76
2023/06/02 04:53:04;;;;;;;7.45;3.53;;;17.70;99.90;;;;;;5054033;28;20528;-76
2023/06/02 04:55:30;;;;;;;9.13;3.25;;;17.70;99.90;;;;;;5047656;28;20041;-77
2023/06/02 04:57:56;;;;;;;5.47;3.15;;;17.70;99.90;;;;;;5046493;28;20040;-76
2023/06/02 05:00:22;;;;;;;7.63;3.28;;;17.70;99.90;;;;;;5044751;28;20402;-76
2023/06/02 05:02:47;;;;;;;7.15;3.25;;;17.60;99.90;;;;;;5046543;28;20033;-76
2023/06/02 05:05:13;;;;;;;5.85;3.45;;;17.60;99.90;;;;;;5044851;28;20095;-76
2023/06/02 05:07:39;;;;;;;6.68;3.90;;;17.70;99.90;;;;;;5045439;28;20081;-76
2023/06/02 05:10:05;;;;;;;6.45;3.90;;;17.80;99.90;;;;;;5050918;28;20036;-76
2023/06/02 05:12:31;;;;;;;10.80;3.75;;;17.80;99.90;;;;;;5042514;28;20033;-76
2023/06/02 05:14:56;;;;;;;5.07;3.17;;;17.70;99.90;;;;;;5043418;28;20044;-77
2023/06/02 05:17:27;;;;;;;5.97;3.22;;;17.80;99.90;;;;;;5047799;28;20017;-77
2023/06/02 05:19:53;;;;;;;5.97;3.53;;;17.80;99.90;;;;;;5044223;28;20119;-76
2023/06/02 05:22:20;;;;;;;6.10;3.72;;;18.00;99.90;;;;;;5046384;28;20155;-76
2023/06/02 05:24:45;;;;;;;9.60;3.42;;;18.00;99.90;;;;;;5051880;28;20040;-77
2023/06/02 05:27:12;;;;;;;5.40;3.30;;;18.00;99.90;;;;;;5047997;28;20028;-77
2023/06/02 05:29:37;;;;;;;5.55;3.60;;;17.90;99.90;;;;;;5047636;28;20044;-76
2023/06/02 05:32:04;;;;;;;10.70;4.63;;;17.90;99.90;;;;;;5046932;28;20025;-77
2023/06/02 05:34:32;;;;;;;12.88;3.67;;;18.10;99.90;;;;;;5050231;28;20064;-77
2023/06/02 05:36:59;;;;;;;9.48;4.03;;;18.10;99.90;;;;;;5046341;28;20109;-76
2023/06/02 05:39:25;;;;;;;8.10;3.40;;;18.00;99.90;;;;;;5045600;28;20025;-76
2023/06/02 05:41:50;;;;;;;6.93;3.58;;;17.90;99.90;;;;;;5045383;28;20509;-76
2023/06/02 05:44:16;;;;;;;9.27;3.45;;;18.10;99.90;;;;;;5045056;28;20033;-76
2023/06/02 05:46:41;;;;;;;7.60;3.20;;;18.20;99.90;;;;;;5045750;28;20043;-76
2023/06/02 05:49:08;;;;;;;8.13;3.88;;;18.30;99.90;;;;;;5045893;28;20403;-76
2023/06/02 05:51:34;;;;;;;6.38;3.45;;;18.10;99.90;;;;;;5048115;28;20124;-76
2023/06/02 05:54:00;;;;;;;6.00;3.35;;;18.10;99.90;;;;;;5053688;28;20029;-77
2023/06/02 05:56:26;;;;;;;6.38;3.90;;;18.20;99.90;;;;;;5050878;28;20154;-76
2023/06/02 05:58:51;;;;;;;9.13;3.55;;;18.30;99.90;;;;;;5049613;28;20055;-76
2023/06/02 06:01:17;;;;;;;10.55;3.50;;;18.10;99.90;;;;;;5052685;28;20025;-76
2023/06/02 06:03:42;;;;;;;5.70;2.90;;;18.20;99.90;;;;;;5050129;28;20036;-76
2023/06/02 06:06:08;;;;;;;6.07;3.30;;;18.50;99.90;;;;;;5048021;28;20028;-76
2023/06/02 06:08:34;;;;;;;5.55;3.30;;;18.60;99.90;;;;;;5050166;28;20568;-76
2023/06/02 06:11:00;;;;;;;5.20;3.47;;;18.50;99.90;;;;;;5049104;28;20033;-77
2023/06/02 06:13:25;;;;;;;6.75;3.38;;;18.40;99.90;;;;;;5052623;28;20102;-76
2023/06/02 06:15:51;;;;;;;6.70;3.45;;;18.40;99.90;;;;;;5064571;28;20470;-76
2023/06/02 06:18:19;;;;;;;7.03;3.10;;;18.50;99.90;;;;;;5050942;28;20025;-76
2023/06/02 06:20:45;;;;;;;5.20;3.20;;;18.40;99.90;;;;;;5051232;28;20041;-76
2023/06/02 06:23:13;;;;;;;5.22;3.28;;;18.40;99.90;;;;;;5054466;28;20020;-77
2023/06/02 06:25:38;;;;;;;6.63;3.55;;;18.40;99.90;;;;;;5046661;28;20021;-77
2023/06/02 06:28:04;;;;;;;7.55;3.92;;;18.40;99.90;;;;;;5046886;28;20044;-76
2023/06/02 06:30:30;;;;;;;6.32;4.00;;;18.30;99.90;;;;;;5055775;28;20499;-77
2023/06/02 06:32:56;;;;;;;7.75;3.38;;;18.40;99.90;;;;;;5058220;28;20269;-77
2023/06/02 06:35:21;;;;;;;6.05;3.60;;;18.40;99.90;;;;;;5060848;28;20047;-74
2023/06/02 06:37:47;;;;;;;7.75;3.88;;;18.50;99.90;;;;;;5047843;28;20040;-75
2023/06/02 06:40:12;;;;;;;5.60;3.80;;;18.50;99.90;;;;;;5050357;28;20028;-74
2023/06/02 06:42:38;;;;;;;6.53;3.88;;;18.60;99.90;;;;;;5048832;28;20033;-74
2023/06/02 06:45:04;;;;;;;6.50;4.15;;;18.70;99.90;;;;;;5046386;28;20108;-74
2023/06/02 06:47:30;;;;;;;6.63;3.72;;;18.80;99.90;;;;;;5047584;28;21131;-74
2023/06/02 06:49:55;;;;;;;7.05;3.60;;;18.80;99.90;;;;;;5046986;28;20040;-75
2023/06/02 06:52:21;;;;;;;6.85;3.40;;;18.90;99.90;;;;;;5048225;28;20021;-74
2023/06/02 06:54:47;;;;;;;6.63;3.90;;;19.10;99.90;;;;;;5044445;28;20543;-73
2023/06/02 06:57:12;;;;;;;5.68;3.22;;;19.20;99.90;;;;;;5046842;28;20045;-74
2023/06/02 06:59:42;;;;;;;8.82;3.20;;;19.40;99.90;;;;;;5047547;28;20025;-74
2023/06/02 07:02:08;;;;;;;8.60;3.67;;;19.50;99.90;;;;;;5047792;28;20035;-74
2023/06/02 07:04:33;;;;;;;6.95;3.30;;;19.70;99.90;;;;;;5042615;28;20032;-75
2023/06/02 07:06:59;;;;;;;9.77;3.38;;;19.90;99.90;;;;;;5046396;28;20021;-74
2023/06/02 07:09:24;;;;;;;5.72;3.45;;;20.30;99.90;;;;;;5041712;28;20040;-75
2023/06/02 07:11:50;;;;;;;19.48;5.93;;;20.50;99.90;;;;;;5048098;28;20497;-74
2023/06/02 07:14:16;;;;;;;13.38;3.80;;;20.70;99.90;;;;;;5051331;28;20474;-75
2023/06/02 07:16:45;;;;;;;8.25;3.90;;;20.80;99.90;;;;;;5051181;28;20109;-74
2023/06/02 07:19:11;;;;;;;9.88;4.20;;;20.80;99.90;;;;;;5048915;28;20386;-75
2023/06/02 07:21:36;;;;;;;7.93;3.58;;;21.10;99.90;;;;;;5046219;28;20115;-74
2023/06/02 07:24:03;;;;;;;6.90;3.78;;;21.40;99.90;;;;;;5043750;28;20058;-74
2023/06/02 07:26:28;;;;;;;6.72;3.15;;;21.90;99.90;;;;;;5050322;28;20112;-75
2023/06/02 07:28:54;;;;;;;6.47;3.70;;;22.50;99.90;;;;;;5047842;28;20163;-75
2023/06/02 07:31:20;;;;;;;7.10;2.80;;;23.30;98.90;;;;;;5051593;28;20086;-75
2023/06/02 07:33:46;;;;;;;5.60;3.13;;;24.20;97.20;;;;;;5050569;28;20171;-75
2023/06/02 07:36:12;;;;;;;19.38;3.78;;;25.30;95.40;;;;;;5046817;28;20040;-74
2023/06/02 07:38:37;;;;;;;6.30;2.97;;;25.60;95.70;;;;;;5046030;28;20037;-75
2023/06/02 07:41:03;;;;;;;5.75;3.33;;;26.40;94.40;;;;;;5046616;28;20399;-75
2023/06/02 07:43:29;;;;;;;7.07;4.00;;;27.00;94.60;;;;;;5050245;28;20850;-75
2023/06/02 07:45:54;;;;;;;8.45;2.70;;;27.10;94.00;;;;;;5049052;28;20111;-75
2023/06/02 07:48:20;;;;;;;5.60;3.28;;;26.60;93.60;;;;;;5046654;28;20056;-75
2023/06/02 07:50:46;;;;;;;5.10;3.03;;;26.20;94.30;;;;;;5052194;28;20102;-78
2023/06/02 07:53:11;;;;;;;5.60;3.63;;;25.60;94.20;;;;;;5052845;28;20182;-79
2023/06/02 07:55:37;;;;;;;6.43;3.13;;;24.70;94.70;;;;;;5057261;28;20053;-77
2023/06/02 07:58:03;;;;;;;6.20;3.13;;;23.70;96.00;;;;;;5060613;28;20028;-77
2023/06/02 08:00:28;;;;;;;5.50;3.35;;;23.50;96.40;;;;;;5051314;28;20039;-79
2023/06/02 08:02:54;;;;;;;6.10;3.38;;;23.50;95.60;;;;;;5050769;28;20495;-78
2023/06/02 08:05:20;;;;;;;5.32;3.40;;;23.80;96.10;;;;;;5058861;28;20378;-78
2023/06/02 08:07:46;;;;;;;5.93;3.80;;;24.00;96.20;;;;;;5056071;28;20032;-79
2023/06/02 08:10:12;;;;;;;5.78;3.75;;;24.00;96.50;;;;;;5054059;28;20049;-78
2023/06/02 08:12:38;;;;;;;6.43;3.08;;;24.30;96.60;;;;;;5057217;28;20021;-78
2023/06/02 08:15:04;;;;;;;5.65;3.05;;;24.00;96.20;;;;;;5058527;28;20029;-78
2023/06/02 08:17:30;;;;;;;5.60;3.80;;;24.10;96.40;;;;;;5057598;28;20068;-77
2023/06/02 08:20:00;;;;;;;4.93;2.92;;;23.90;96.00;;;;;;5052354;28;20056;-77
2023/06/02 08:22:27;;;;;;;6.65;3.67;;;23.50;95.60;;;;;;5049184;28;20522;-77
2023/06/02 08:24:53;;;;;;;4.88;3.08;;;23.60;96.00;;;;;;5051178;28;20036;-77
2023/06/02 08:27:20;;;;;;;5.13;3.42;;;23.40;95.90;;;;;;5049008;28;20031;-77
2023/06/02 08:29:46;;;;;;;7.78;3.58;;;23.10;96.20;;;;;;5047902;28;20036;-77
2023/06/02 08:32:12;;;;;;;6.90;3.30;;;23.50;96.70;;;;;;5050006;28;20029;-75
2023/06/02 08:34:41;;;;;;;7.13;3.40;;;24.00;96.50;;;;;;5054738;28;20032;-75
2023/06/02 08:37:16;;;;;;;7.35;2.97;;;23.80;96.70;;;;;;5047726;28;20044;-74
2023/06/02 08:39:46;;;;;;;5.38;3.22;;;24.10;96.30;;;;;;5047856;28;20031;-73
2023/06/02 08:42:12;;;;;;;5.55;3.25;;;24.10;96.70;;;;;;5050550;28;20097;-73
2023/06/02 08:44:39;;;;;;;5.55;3.22;;;24.20;97.30;;;;;;5052854;28;20020;-74
2023/06/02 08:47:08;;;;;;;5.85;3.45;;;23.90;96.50;;;;;;5052820;28;20100;-75
2023/06/02 08:49:35;;;;;;;5.68;2.80;;;23.70;96.20;;;;;;5049992;28;20033;-76
2023/06/02 08:52:05;;;;;;;6.25;3.33;;;24.00;96.00;;;;;;5064596;28;20108;-77
2023/06/02 08:54:31;;;;;;;6.43;3.03;;;24.00;96.40;;;;;;5067820;28;20037;-75
2023/06/02 08:56:57;;;;;;;5.75;3.15;;;23.90;96.60;;;;;;5066780;28;20045;-76
2023/06/02 08:59:24;;;;;;;7.07;3.95;;;23.80;97.10;;;;;;5069213;28;20462;-76
2023/06/02 09:01:50;;;;;;;5.95;3.95;;;24.10;96.80;;;;;;5067265;28;20035;-77
2023/06/02 09:04:19;;;;;;;5.45;3.88;;;24.20;96.80;;;;;;5067633;28;20375;-76
2023/06/02 09:06:48;;;;;;;5.63;3.65;;;24.50;95.60;;;;;;5068336;28;20039;-77
2023/06/02 09:09:15;;;;;;;5.10;3.47;;;24.90;96.10;;;;;;5070986;28;20055;-75
2023/06/02 09:11:57;;;;;;;7.38;3.75;;;24.80;96.00;;;;;;5068771;28;20040;-75
2023/06/02 09:14:23;;;;;;;5.68;3.65;;;24.80;96.00;;;;;;5066346;28;20025;-76
2023/06/02 09:16:48;;;;;;;7.53;3.97;;;24.90;95.70;;;;;;5066662;28;20042;-75
2023/06/02 09:19:14;;;;;;;5.70;3.40;;;25.00;95.50;;;;;;5069092;28;20104;-74
2023/06/02 09:21:41;;;;;;;5.40;3.40;;;24.70;95.70;;;;;;5067778;28;20485;-76
2023/06/02 09:24:07;;;;;;;5.40;3.55;;;25.00;95.10;;;;;;5069113;28;20032;-75
2023/06/02 09:26:33;;;;;;;7.00;3.70;;;25.40;94.50;;;;;;5064145;28;20489;-75
2023/06/02 09:29:13;;;;;;;4.65;3.22;;;25.40;95.40;;;;;;5061355;28;20120;-76
2023/06/02 09:31:43;;;;;;;5.00;3.10;;;25.80;94.50;;;;;;5053046;28;20086;-74
2023/06/02 09:34:08;;;;;;;4.45;2.92;;;26.00;94.70;;;;;;5051987;28;20123;-75
2023/06/02 09:36:34;;;;;;;5.60;3.40;;;26.10;94.00;;;;;;5054389;28;20024;-75
2023/06/02 09:39:01;;;;;;;8.30;3.80;;;26.30;94.50;;;;;;5050399;28;20025;-75
2023/06/02 09:41:28;;;;;;;6.70;3.15;;;26.30;94.60;;;;;;5048326;28;20477;-75
2023/06/02 09:43:56;;;;;;;7.13;3.75;;;26.10;94.00;;;;;;5051716;28;20484;-75
2023/06/02 09:46:22;;;;;;;5.35;3.33;;;25.90;94.10;;;;;;5051106;28;20060;-74
2023/06/02 09:48:55;;;;;;;6.80;3.85;;;25.70;93.30;;;;;;5047760;28;20041;-75
2023/06/02 09:51:25;;;;;;;6.32;3.25;;;25.60;94.80;;;;;;5050638;28;20044;-74
2023/06/02 09:53:51;;;;;;;6.05;3.63;;;26.00;93.90;;;;;;5048542;28;20036;-73
2023/06/02 09:56:22;;;;;;;5.53;3.33;;;25.60;93.60;;;;;;5050830;28;20049;-74
2023/06/02 09:58:48;;;;;;;7.50;3.35;;;26.10;93.90;;;;;;5048438;28;20115;-74
2023/06/02 10:01:16;;;;;;;7.03;3.95;;;25.90;93.30;;;;;;5049194;28;20092;-74
2023/06/02 10:03:45;;;;;;;7.20;3.42;;;25.40;93.80;;;;;;5048595;28;20049;-74
2023/06/02 10:06:40;;;;;;;4.85;2.60;;;25.80;94.30;;;;;;5052184;28;20036;-74
2023/06/02 10:09:24;;;;;;;5.68;3.45;;;26.10;93.60;;;;;;5038197;28;20053;-74
2023/06/02 10:12:08;;;;;;;5.70;3.55;;;26.40;94.20;;;;;;5050568;28;20028;-74
2023/06/02 10:15:01;;;;;;;6.72;3.40;;;26.60;92.90;;;;;;5045344;28;20068;-74
2023/06/02 10:17:39;;;;;;;4.70;3.40;;;26.70;92.60;;;;;;5050512;28;20029;-74
2023/06/02 10:21:04;;;;;;;6.68;3.20;;;26.30;92.50;;;;;;5053522;28;20576;-74
2023/06/02 10:23:57;;;;;;;6.32;3.13;;;26.40;92.50;;;;;;4945866;28;20120;-74
2023/06/02 10:26:57;;;;;;;7.20;3.95;;;26.80;92.40;;;;;;5055160;28;20025;-74
2023/06/02 10:29:28;;;;;;;5.97;3.60;;;27.10;92.00;;;;;;5053020;28;20106;-74
2023/06/02 10:31:54;;;;;;;4.50;2.80;;;26.70;91.50;;;;;;5046847;28;20017;-74
2023/06/02 10:34:52;;;;;;;5.22;3.22;;;26.60;92.00;;;;;;5050793;28;20039;-74
2023/06/02 10:37:19;;;;;;;5.70;3.40;;;27.00;93.00;;;;;;5006864;28;20044;-74
2023/06/02 10:39:44;;;;;;;7.07;3.42;;;28.00;92.30;;;;;;5049534;28;20079;-75
2023/06/02 10:42:11;;;;;;;5.57;3.45;;;28.00;91.10;;;;;;5053506;28;20025;-75
2023/06/02 10:44:37;;;;;;;5.43;3.50;;;27.50;90.70;;;;;;5052824;28;20025;-74
2023/06/02 10:47:18;;;;;;;6.05;3.05;;;27.20;91.50;;;;;;5050720;28;20908;-74
2023/06/02 10:50:02;;;;;;;4.78;3.03;;;27.50;91.40;;;;;;5051664;28;20045;-74
2023/06/02 10:52:32;;;;;;;6.00;3.42;;;28.00;92.00;;;;;;5058694;28;20107;-74
2023/06/02 10:55:06;;;;;;;5.93;3.47;;;28.00;91.80;;;;;;5053825;28;20494;-74
2023/06/02 10:57:57;;;;;;;4.30;2.70;;;28.70;91.10;;;;;;5056247;28;20055;-74
2023/06/02 11:00:44;;;;;;;4.60;3.00;;;28.80;90.80;;;;;;5050321;28;20087;-73
2023/06/02 11:03:15;;;;;;;7.15;3.33;;;28.80;90.30;;;;;;5056937;28;20111;-74
2023/06/02 11:05:42;;;;;;;5.18;3.25;;;28.70;90.90;;;;;;5047745;28;20028;-74
2023/06/02 11:08:11;;;;;;;4.93;3.08;;;28.60;90.50;;;;;;5047976;28;20036;-74
2023/06/02 11:10:43;;;;;;;6.70;4.05;;;28.30;89.30;;;;;;5046224;28;20416;-74
2023/06/02 11:13:09;;;;;;;5.15;3.38;;;28.00;91.00;;;;;;5045160;28;20075;-74
2023/06/02 11:15:36;;;;;;;4.72;2.63;;;28.10;91.80;;;;;;5051992;28;20071;-74
2023/06/02 11:18:21;;;;;;;5.82;3.60;;;28.30;91.50;;;;;;5048428;28;20078;-74
2023/06/02 11:20:49;;;;;;;5.65;2.95;;;28.30;90.50;;;;;;5049343;28;20036;-74
2023/06/02 11:23:15;;;;;;;6.03;3.28;;;28.40;90.80;;;;;;5047236;28;20017;-74
2023/06/02 11:25:41;;;;;;;5.28;2.95;;;28.80;91.60;;;;;;5049430;28;20191;-74
2023/06/02 11:28:17;;;;;;;4.97;3.00;;;29.00;90.10;;;;;;5045601;28;20032;-74
2023/06/02 11:30:42;;;;;;;6.25;2.85;;;28.90;89.60;;;;;;5049465;28;20029;-74
2023/06/02 11:33:08;;;;;;;6.40;3.05;;;28.70;89.90;;;;;;5056564;28;20478;-74
2023/06/02 11:35:35;;;;;;;7.50;3.15;;;28.70;90.10;;;;;;5048940;28;20041;-74
2023/06/02 11:38:07;;;;;;;5.45;3.33;;;28.60;90.30;;;;;;5043980;28;20391;-74
2023/06/02 11:40:35;;;;;;;5.75;3.08;;;28.60;90.50;;;;;;5055992;28;20078;-75
2023/06/02 11:43:02;;;;;;;8.23;3.08;;;28.70;91.00;;;;;;5046470;28;20060;-74
2023/06/02 11:45:28;;;;;;;4.45;2.90;;;28.70;89.20;;;;;;5047393;28;20025;-75
2023/06/02 11:47:58;;;;;;;6.40;3.60;;;28.20;90.30;;;;;;5058644;28;20036;-74
2023/06/02 11:50:24;;;;;;;7.97;3.15;;;28.20;89.90;;;;;;5050010;28;20036;-74
2023/06/02 11:52:49;;;;;;;6.32;3.80;;;27.80;90.20;;;;;;5054054;28;20027;-74
2023/06/02 11:55:15;;;;;;;7.65;2.63;;;27.40;90.20;;;;;;5054631;28;20421;-74
2023/06/02 11:57:43;;;;;;;5.43;3.05;;;27.50;89.30;;;;;;5047992;28;20045;-74
2023/06/02 12:00:11;;;;;;;4.38;2.95;;;27.70;89.10;;;;;;5044269;28;20028;-74
2023/06/02 12:02:43;;;;;;;6.15;3.03;;;27.80;90.20;;;;;;5048484;28;20044;-74
2023/06/02 12:05:26;;;;;;;6.05;3.30;;;27.30;90.60;;;;;;5049168;28;20029;-74
2023/06/02 12:07:52;;;;;;;5.73;2.87;;;27.50;90.80;;;;;;5051357;28;20383;-75
2023/06/02 12:10:18;;;;;;;5.65;3.15;;;27.80;90.60;;;;;;5047778;28;20041;-74
2023/06/02 12:12:46;;;;;;;8.20;4.18;;;27.90;90.70;;;;;;5048648;28;20713;-74
2023/06/02 12:15:15;;;;;;;6.15;3.28;;;27.90;89.90;;;;;;5048505;28;20029;-74
2023/06/02 12:17:45;;;;;;;11.15;3.70;;;27.80;91.60;;;;;;5045741;28;20083;-74
2023/06/02 12:20:11;;;;;;;6.63;3.53;;;27.80;91.00;;;;;;5053017;28;20025;-74
2023/06/02 12:22:55;;;;;;;10.27;3.90;;;27.90;91.20;;;;;;5058331;28;20039;-74
2023/06/02 12:25:21;;;;;;;7.45;4.18;;;27.90;91.40;;;;;;5047392;28;20586;-74
2023/06/02 12:27:48;;;;;;;6.05;3.70;;;27.60;91.50;;;;;;5051400;28;20116;-74
2023/06/02 12:30:15;;;;;;;10.85;4.47;;;27.20;92.10;;;;;;5050424;28;20123;-74
2023/06/02 12:32:40;;;;;;;10.02;4.35;;;26.80;91.40;;;;;;5045428;28;20029;-74
2023/06/02 12:35:06;;;;;;;5.63;3.95;;;27.00;91.20;;;;;;5046354;28;20032;-75
2023/06/02 12:37:32;;;;;;;5.72;3.53;;;26.90;91.40;;;;;;5049842;28;20033;-74
2023/06/02 12:39:58;;;;;;;6.65;4.28;;;26.70;91.70;;;;;;5053294;28;20469;-74
2023/06/02 12:42:23;;;;;;;12.85;4.38;;;26.70;91.80;;;;;;5045247;28;20094;-74
2023/06/02 12:44:49;;;;;;;5.97;3.65;;;26.60;91.60;;;;;;5048342;28;20159;-74
2023/06/02 12:47:17;;;;;;;5.30;3.65;;;26.50;91.90;;;;;;5049334;28;20029;-74
2023/06/02 12:49:47;;;;;;;7.25;3.60;;;26.80;91.60;;;;;;5048323;28;20048;-74